Aviation Digital Data Service (ADDS)

Output produced by METARs form (0704 UTC 21 April 2014)
found at http://aviationweather.gov/adds/metars/
 
KARA 210653Z AUTO 00000KT 4SM CLR 17/16 A3011 RMK AO2 SLP195 T01670156